Ansley, Louisiana
Current Conditions -  °F | °C
As of 3:15 AM on Saturday 01 Nov 2014 (Local Time) from KRSN Reporting Station
Clear Clear  
Wind Chill: 36°   Ceiling: Unl
Heat Index: 40°   Visibility: 10mi
Dew Point: 31°   Wind: 7mph
Humidity: 68%   Direction: 20°NNE
Pressure: 30.38"   Gusts: NA
Location:  32.5075°N, 92.6828°W
Report Text: KRSN 010815Z AUTO 02006KT 10SM CLR 05/M01 A3038 RMK AO2 T00471007
Loading
Personal Weather Stations






























Interactive Weather Map
Tropical Storm Tracking
New forecast layout! Learn more

10-Day Weather Forecast

Advertisements
Track Severe Weather on mobile